createdAt,value
2022-08-03T00:00:41.673Z,18.33
2022-08-03T00:03:24.818Z,18.23
2022-08-03T00:06:07.998Z,18.21
2022-08-03T00:08:51.182Z,18.13
2022-08-03T00:11:34.465Z,18.22
2022-08-03T00:14:17.616Z,18.17
2022-08-03T00:17:02.310Z,18.20
2022-08-03T00:19:45.411Z,18.09
2022-08-03T00:22:28.613Z,18.03
2022-08-03T00:25:11.735Z,17.99
2022-08-03T00:27:54.810Z,18.03
2022-08-03T00:30:39.112Z,18.04
2022-08-03T00:33:26.384Z,18.03
2022-08-03T00:36:12.418Z,17.94
2022-08-03T00:38:57.483Z,18.06
2022-08-03T00:41:42.930Z,18.19
2022-08-03T00:44:27.187Z,18.16
2022-08-03T00:47:11.101Z,17.98
2022-08-03T00:49:55.825Z,17.91
2022-08-03T00:52:39.178Z,17.61
2022-08-03T00:55:22.585Z,17.62
2022-08-03T00:58:06.816Z,17.64
2022-08-03T01:00:50.023Z,17.56
2022-08-03T01:03:33.168Z,17.50
2022-08-03T01:06:21.246Z,17.48
2022-08-03T01:09:10.789Z,17.41
2022-08-03T01:12:02.496Z,17.36
2022-08-03T01:14:51.547Z,17.36
2022-08-03T01:17:41.602Z,17.30
2022-08-03T01:20:28.538Z,17.34
2022-08-03T01:23:56.551Z,17.32
2022-08-03T01:26:52.311Z,17.25
2022-08-03T01:30:01.514Z,17.23
2022-08-03T01:33:03.000Z,17.21
2022-08-03T01:35:50.204Z,17.16
2022-08-03T01:38:35.340Z,17.12
2022-08-03T01:41:22.368Z,17.07
2022-08-03T01:44:29.665Z,17.00
2022-08-03T01:47:17.009Z,16.96
2022-08-03T01:50:02.649Z,16.96
2022-08-03T01:52:47.365Z,16.90
2022-08-03T01:55:33.346Z,16.83
2022-08-03T01:58:18.590Z,16.80
2022-08-03T02:01:03.762Z,16.81
2022-08-03T02:04:00.119Z,16.80
2022-08-03T02:06:59.942Z,16.74
2022-08-03T02:09:51.153Z,16.72
2022-08-03T02:12:35.591Z,16.87
2022-08-03T02:15:20.720Z,16.85
2022-08-03T02:18:06.386Z,16.83
2022-08-03T02:20:51.845Z,16.86
2022-08-03T02:23:35.130Z,16.88
2022-08-03T02:26:23.500Z,16.89
2022-08-03T02:29:12.708Z,16.77
2022-08-03T02:32:01.653Z,16.89
2022-08-03T02:34:50.412Z,16.96
2022-08-03T02:37:39.166Z,16.85
2022-08-03T02:40:29.678Z,16.98
2022-08-03T02:43:22.860Z,16.84
2022-08-03T02:46:06.736Z,16.80
2022-08-03T02:48:52.776Z,16.84
2022-08-03T02:51:38.855Z,16.86
2022-08-03T02:54:27.875Z,16.99
2022-08-03T02:57:15.004Z,16.79
2022-08-03T03:00:00.185Z,16.79
2022-08-03T03:02:44.472Z,16.69
2022-08-03T03:05:55.201Z,16.75
2022-08-03T03:08:35.705Z,16.65
2022-08-03T03:11:24.762Z,16.62
2022-08-03T03:14:08.822Z,16.73
2022-08-03T03:16:57.950Z,16.75
2022-08-03T03:19:42.916Z,16.63
2022-08-03T03:22:27.331Z,16.61
2022-08-03T03:25:11.424Z,16.56
2022-08-03T03:27:56.660Z,16.56
2022-08-03T03:30:41.010Z,16.55
2022-08-03T03:33:24.513Z,16.52
2022-08-03T03:36:08.565Z,16.54
2022-08-03T03:38:51.694Z,16.43
2022-08-03T03:41:37.018Z,16.43
2022-08-03T03:44:21.692Z,16.40
2022-08-03T03:47:05.131Z,16.37
2022-08-03T03:49:48.472Z,16.39
2022-08-03T03:52:35.828Z,16.37
2022-08-03T03:55:19.750Z,16.44
2022-08-03T03:58:04.186Z,16.42
2022-08-03T04:00:49.867Z,16.33
2022-08-03T04:03:33.010Z,16.38
2022-08-03T04:06:34.188Z,16.51
2022-08-03T04:09:35.283Z,16.60
2022-08-03T04:12:20.867Z,16.65
2022-08-03T04:15:05.791Z,16.70
2022-08-03T04:17:52.006Z,16.71
2022-08-03T04:20:39.303Z,16.77
2022-08-03T04:23:25.823Z,16.75
2022-08-03T04:26:12.061Z,16.78
2022-08-03T04:28:57.251Z,16.81
2022-08-03T04:31:41.223Z,16.86
2022-08-03T04:34:25.726Z,16.89
2022-08-03T04:37:13.253Z,17.10
2022-08-03T04:39:59.743Z,17.16
2022-08-03T04:42:44.272Z,17.31
2022-08-03T04:45:29.031Z,17.34
2022-08-03T04:48:12.223Z,17.31
2022-08-03T04:50:57.014Z,17.37
2022-08-03T04:53:40.233Z,17.48
2022-08-03T04:56:23.360Z,17.54
2022-08-03T04:59:06.441Z,17.64
2022-08-03T05:01:49.632Z,17.63
2022-08-03T05:04:32.856Z,17.68
2022-08-03T05:07:22.708Z,17.58
2022-08-03T05:10:16.240Z,17.57
2022-08-03T05:12:59.884Z,17.67
2022-08-03T05:15:43.424Z,17.75
2022-08-03T05:18:26.557Z,17.84
2022-08-03T05:21:12.504Z,17.83
2022-08-03T05:23:57.092Z,18.02
2022-08-03T05:26:40.170Z,18.03
2022-08-03T05:29:23.321Z,18.10
2022-08-03T05:32:08.426Z,18.10
2022-08-03T05:34:51.652Z,18.20
2022-08-03T05:37:37.529Z,18.32
2022-08-03T05:40:22.200Z,18.42
2022-08-03T05:43:05.263Z,18.59
2022-08-03T05:45:48.390Z,18.68
2022-08-03T05:48:52.114Z,18.82
2022-08-03T05:51:35.585Z,19.00
2022-08-03T05:54:18.673Z,19.36
2022-08-03T05:57:03.199Z,19.66
2022-08-03T05:59:55.571Z,20.06
2022-08-03T06:02:44.245Z,20.39
2022-08-03T06:05:28.413Z,20.65
2022-08-03T06:08:11.717Z,20.78
2022-08-03T06:10:58.657Z,21.10
2022-08-03T06:13:43.518Z,21.19
2022-08-03T06:16:26.636Z,21.33
2022-08-03T06:19:09.992Z,21.57
2022-08-03T06:21:53.109Z,21.91
2022-08-03T06:24:36.640Z,22.09
2022-08-03T06:27:20.664Z,22.27
2022-08-03T06:30:21.645Z,22.41
2022-08-03T06:33:04.929Z,22.62
2022-08-03T06:35:51.478Z,22.74
2022-08-03T06:38:34.539Z,22.97
2022-08-03T06:41:17.790Z,23.17
2022-08-03T06:44:03.079Z,23.39
2022-08-03T06:46:48.933Z,23.66
2022-08-03T06:49:32.100Z,23.87
2022-08-03T06:52:15.210Z,24.12
2022-08-03T06:55:18.378Z,24.29
2022-08-03T06:58:03.348Z,24.47
2022-08-03T07:00:46.892Z,24.74
2022-08-03T07:03:31.457Z,25.07
2022-08-03T07:06:16.209Z,25.11
2022-08-03T07:08:59.860Z,25.33
2022-08-03T07:11:42.930Z,25.49
2022-08-03T07:14:26.239Z,25.60
2022-08-03T07:17:11.495Z,25.83
2022-08-03T07:19:56.995Z,26.04
2022-08-03T07:22:40.269Z,26.43
2022-08-03T07:25:23.874Z,26.62
2022-08-03T07:28:06.962Z,26.89
2022-08-03T07:30:50.234Z,27.00
2022-08-03T07:33:33.362Z,27.15
2022-08-03T07:36:21.102Z,27.46
2022-08-03T07:39:17.533Z,27.91
2022-08-03T07:42:01.115Z,28.05
2022-08-03T07:44:46.548Z,28.69
2022-08-03T07:47:35.416Z,30.00
2022-08-03T07:50:19.114Z,31.07
2022-08-03T07:53:03.567Z,31.81
2022-08-03T07:55:46.671Z,33.63
2022-08-03T07:58:29.741Z,35.06
2022-08-03T08:01:15.153Z,35.66
2022-08-03T08:03:58.433Z,35.48
2022-08-03T08:06:41.489Z,36.07
2022-08-03T08:09:26.045Z,37.11
2022-08-03T08:12:15.685Z,36.77
2022-08-03T08:14:59.295Z,37.41
2022-08-03T08:17:46.844Z,37.77
2022-08-03T08:20:32.130Z,38.23
2022-08-03T08:23:37.744Z,39.04
2022-08-03T08:26:19.857Z,38.68
2022-08-03T08:29:02.986Z,38.92
2022-08-03T08:31:46.116Z,38.95
2022-08-03T08:34:29.399Z,38.58
2022-08-03T08:37:15.508Z,39.12
2022-08-03T08:39:58.711Z,39.43
2022-08-03T08:42:57.837Z,39.73
2022-08-03T08:45:43.406Z,39.02
2022-08-03T08:48:28.109Z,39.98
2022-08-03T08:51:13.562Z,40.00
2022-08-03T08:53:59.810Z,40.15
2022-08-03T08:56:43.388Z,39.41
2022-08-03T08:59:48.931Z,39.13
2022-08-03T09:02:32.194Z,39.80
2022-08-03T09:05:17.310Z,39.44
2022-08-03T09:08:00.623Z,39.32
2022-08-03T09:10:43.797Z,39.03
2022-08-03T09:13:27.180Z,39.15
2022-08-03T09:16:13.775Z,39.76
2022-08-03T09:18:57.103Z,39.96
2022-08-03T09:21:40.223Z,40.65
2022-08-03T09:24:40.837Z,40.80
2022-08-03T09:27:26.139Z,40.75
2022-08-03T09:30:33.404Z,40.61
2022-08-03T09:33:19.525Z,39.45
2022-08-03T09:36:02.628Z,39.38
2022-08-03T09:39:06.409Z,40.20
2022-08-03T09:42:05.275Z,40.45
2022-08-03T09:44:49.893Z,40.39
2022-08-03T09:47:36.444Z,40.56
2022-08-03T09:50:20.997Z,41.06
2022-08-03T09:53:05.259Z,41.16
2022-08-03T09:56:34.595Z,41.67
2022-08-03T09:59:02.217Z,42.20
2022-08-03T10:01:45.390Z,42.51
2022-08-03T10:04:31.696Z,42.64
2022-08-03T10:07:16.576Z,41.28
2022-08-03T10:10:28.817Z,41.32
2022-08-03T10:13:04.998Z,41.71
2022-08-03T10:16:21.197Z,41.97
2022-08-03T10:18:51.704Z,40.00
2022-08-03T10:21:36.842Z,40.16
2022-08-03T10:24:26.672Z,41.05
2022-08-03T10:27:12.173Z,40.95
2022-08-03T10:29:58.697Z,41.63
2022-08-03T10:32:44.497Z,42.02
2022-08-03T10:35:28.283Z,42.30
2022-08-03T10:38:17.893Z,42.37
2022-08-03T10:41:03.497Z,42.28
2022-08-03T10:43:51.826Z,42.21
2022-08-03T10:46:38.370Z,42.59
2022-08-03T10:49:34.002Z,42.42
2022-08-03T10:52:32.440Z,41.78
2022-08-03T10:55:49.339Z,41.29
2022-08-03T10:58:57.430Z,41.02
2022-08-03T11:01:59.867Z,40.00
2022-08-03T11:04:45.338Z,39.75
2022-08-03T11:07:28.413Z,39.28
2022-08-03T11:10:31.685Z,38.59
2022-08-03T11:13:16.995Z,38.02
2022-08-03T11:16:06.527Z,36.84
2022-08-03T11:19:02.745Z,36.34
2022-08-03T11:21:59.998Z,35.76
2022-08-03T11:24:58.568Z,35.19
2022-08-03T11:27:41.664Z,34.81
2022-08-03T11:30:27.587Z,34.36
2022-08-03T11:33:30.781Z,33.79
2022-08-03T11:36:31.909Z,32.91
2022-08-03T11:39:16.711Z,32.05
2022-08-03T11:42:00.306Z,31.61
2022-08-03T11:44:47.515Z,31.33
2022-08-03T11:47:31.428Z,31.39
2022-08-03T11:50:17.265Z,31.38
2022-08-03T11:53:00.416Z,31.67
2022-08-03T11:55:44.478Z,31.86
2022-08-03T11:58:58.059Z,32.10
2022-08-03T12:01:32.378Z,32.05
2022-08-03T12:04:17.375Z,31.71
2022-08-03T12:07:04.485Z,31.49
2022-08-03T12:10:07.717Z,31.23
2022-08-03T12:12:57.051Z,31.08
2022-08-03T12:15:41.385Z,31.11
2022-08-03T12:18:25.370Z,31.05
2022-08-03T12:21:10.573Z,30.90
2022-08-03T12:24:00.763Z,30.82
2022-08-03T12:26:54.511Z,30.73
2022-08-03T12:29:58.626Z,30.62
2022-08-03T12:32:44.998Z,30.43
2022-08-03T12:35:28.128Z,30.44
2022-08-03T12:38:14.931Z,30.20
2022-08-03T12:41:04.828Z,30.14
2022-08-03T12:43:50.066Z,30.22
2022-08-03T12:46:35.034Z,30.34
2022-08-03T12:49:19.243Z,30.38
2022-08-03T12:52:07.244Z,30.28
2022-08-03T12:54:57.156Z,30.13
2022-08-03T12:57:44.694Z,30.01
2022-08-03T13:00:30.097Z,29.92
2022-08-03T13:03:39.640Z,29.95
2022-08-03T13:06:19.784Z,29.95
2022-08-03T13:09:04.979Z,30.05
2022-08-03T13:11:57.869Z,30.05
2022-08-03T13:14:50.145Z,29.92
2022-08-03T13:17:33.288Z,29.61
2022-08-03T13:20:19.028Z,29.25
2022-08-03T13:23:02.238Z,28.73
2022-08-03T13:25:55.515Z,27.92
2022-08-03T13:28:39.351Z,27.35
2022-08-03T13:31:23.908Z,26.92
2022-08-03T13:34:09.992Z,26.54
2022-08-03T13:37:08.863Z,26.61
2022-08-03T13:39:58.957Z,26.51
2022-08-03T13:42:43.570Z,26.45
2022-08-03T13:45:27.565Z,26.42
2022-08-03T13:48:12.304Z,26.39
2022-08-03T13:50:55.447Z,26.51
2022-08-03T13:53:38.549Z,26.53
2022-08-03T13:56:21.711Z,26.60
2022-08-03T13:59:04.895Z,26.71
2022-08-03T14:01:55.536Z,26.82
2022-08-03T14:04:40.317Z,26.94
2022-08-03T14:07:23.521Z,27.07
2022-08-03T14:10:07.608Z,27.15
2022-08-03T14:12:50.819Z,27.23
2022-08-03T14:15:37.481Z,27.33
2022-08-03T14:18:29.168Z,27.32
2022-08-03T14:21:18.538Z,27.34
2022-08-03T14:24:04.807Z,27.38
2022-08-03T14:26:47.933Z,27.38
2022-08-03T14:29:31.109Z,27.41
2022-08-03T14:32:14.332Z,27.48
2022-08-03T14:34:57.527Z,27.42
2022-08-03T14:37:44.567Z,27.39
2022-08-03T14:40:27.889Z,27.50
2022-08-03T14:43:11.221Z,27.50
2022-08-03T14:45:55.303Z,27.62
2022-08-03T14:50:12.597Z,27.68
2022-08-03T14:51:51.371Z,27.88
2022-08-03T14:54:38.415Z,28.04
2022-08-03T14:57:21.986Z,28.03
2022-08-03T15:00:06.686Z,28.07
2022-08-03T15:02:49.847Z,27.99
2022-08-03T15:05:33.066Z,27.92
2022-08-03T15:08:18.800Z,27.88
2022-08-03T15:11:03.718Z,27.69
2022-08-03T15:13:47.945Z,27.47
2022-08-03T15:16:31.116Z,26.37
2022-08-03T15:20:02.842Z,25.51
2022-08-03T15:22:20.684Z,24.72
2022-08-03T15:26:31.998Z,24.19
2022-08-03T15:28:13.481Z,23.60
2022-08-03T15:30:56.574Z,23.27
2022-08-03T15:33:40.063Z,23.05
2022-08-03T15:36:23.203Z,22.76
2022-08-03T15:39:06.912Z,22.55
2022-08-03T15:41:49.987Z,22.47
2022-08-03T15:44:34.475Z,22.27
2022-08-03T15:47:17.802Z,22.07
2022-08-03T15:50:00.882Z,22.05
2022-08-03T15:52:44.020Z,21.75
2022-08-03T15:55:27.299Z,21.64
2022-08-03T15:59:04.155Z,21.53
2022-08-03T16:01:19.432Z,21.46
2022-08-03T16:04:03.074Z,21.35
2022-08-03T16:06:47.813Z,21.27
2022-08-03T16:09:42.388Z,21.12
2022-08-03T16:12:26.892Z,20.96
2022-08-03T16:15:11.395Z,20.83
2022-08-03T16:17:56.542Z,20.83
2022-08-03T16:20:39.803Z,20.72
2022-08-03T16:23:25.637Z,20.71
2022-08-03T16:26:13.659Z,20.63
2022-08-03T16:28:57.136Z,20.60
2022-08-03T16:31:41.551Z,20.63
2022-08-03T16:34:37.240Z,20.49
2022-08-03T16:37:38.224Z,20.54
2022-08-03T16:40:22.494Z,20.47
2022-08-03T16:43:18.581Z,20.27
2022-08-03T16:46:02.774Z,20.29
2022-08-03T16:48:45.913Z,20.02
2022-08-03T16:51:40.409Z,19.88
2022-08-03T16:54:36.151Z,19.87
2022-08-03T16:57:56.651Z,19.89
2022-08-03T17:00:32.977Z,19.88
2022-08-03T17:03:24.211Z,19.80
2022-08-03T17:06:07.895Z,19.80
2022-08-03T17:08:55.510Z,19.73
2022-08-03T17:11:43.893Z,19.90
2022-08-03T17:14:30.115Z,19.94
2022-08-03T17:17:20.628Z,19.88
2022-08-03T17:20:10.276Z,19.84
2022-08-03T17:23:02.007Z,19.85
2022-08-03T17:26:01.814Z,19.86
2022-08-03T17:28:57.703Z,19.92
2022-08-03T17:31:48.868Z,19.98
2022-08-03T17:34:36.626Z,20.03
2022-08-03T17:37:27.101Z,20.05
2022-08-03T17:40:26.347Z,20.13
2022-08-03T17:44:14.106Z,20.12
2022-08-03T17:46:23.392Z,20.11
2022-08-03T17:49:06.938Z,20.00
2022-08-03T17:52:17.510Z,20.01
2022-08-03T17:55:56.725Z,19.93
2022-08-03T17:58:20.937Z,19.94
2022-08-03T18:02:03.319Z,19.91
2022-08-03T18:04:30.075Z,19.89
2022-08-03T18:07:18.911Z,19.92
2022-08-03T18:10:12.066Z,19.89
2022-08-03T18:13:04.878Z,19.93
2022-08-03T18:16:01.724Z,19.91
2022-08-03T18:18:48.573Z,19.84
2022-08-03T18:22:02.188Z,19.89
2022-08-03T18:24:36.159Z,19.75
2022-08-03T18:27:22.677Z,19.76
2022-08-03T18:30:06.888Z,19.79
2022-08-03T18:33:00.337Z,19.80
2022-08-03T18:35:52.783Z,19.77
2022-08-03T18:38:40.640Z,19.81
2022-08-03T18:41:33.334Z,19.85
2022-08-03T18:47:50.559Z,19.79
2022-08-03T18:50:48.272Z,19.86
2022-08-03T18:54:03.010Z,19.71
2022-08-03T18:56:49.298Z,19.58
2022-08-03T18:59:40.300Z,19.54
2022-08-03T19:02:35.936Z,19.50
2022-08-03T19:05:23.416Z,19.50
2022-08-03T19:08:38.195Z,19.62
2022-08-03T19:11:28.185Z,19.62
2022-08-03T19:14:35.929Z,19.57
2022-08-03T19:17:29.492Z,19.58
2022-08-03T19:20:13.883Z,19.59
2022-08-03T19:23:00.363Z,19.45
2022-08-03T19:25:45.923Z,19.37
2022-08-03T19:28:31.278Z,19.29
2022-08-03T19:31:15.712Z,19.34
2022-08-03T19:34:00.491Z,19.32
2022-08-03T19:36:45.073Z,19.29
2022-08-03T19:39:28.479Z,19.25
2022-08-03T19:42:23.343Z,19.13
2022-08-03T19:45:11.396Z,19.23
2022-08-03T19:48:09.488Z,19.21
2022-08-03T19:50:59.164Z,19.27
2022-08-03T19:53:45.241Z,19.18
2022-08-03T19:56:29.572Z,19.15
2022-08-03T19:59:15.488Z,19.24
2022-08-03T20:01:58.631Z,19.21
2022-08-03T20:04:41.979Z,19.13
2022-08-03T20:07:26.678Z,19.21
2022-08-03T20:10:10.272Z,19.03
2022-08-03T20:12:54.019Z,19.16
2022-08-03T20:15:41.414Z,18.99
2022-08-03T20:18:27.897Z,18.88
2022-08-03T20:21:15.831Z,19.05
2022-08-03T20:24:23.784Z,19.09
2022-08-03T20:27:09.778Z,19.06
2022-08-03T20:30:06.797Z,19.01
2022-08-03T20:32:58.330Z,19.07
2022-08-03T20:35:41.917Z,18.95
2022-08-03T20:38:28.969Z,18.86
2022-08-03T20:41:12.707Z,18.91
2022-08-03T20:43:57.618Z,18.85
2022-08-03T20:46:53.080Z,18.75
2022-08-03T20:49:45.930Z,18.56
2022-08-03T20:52:30.664Z,18.47
2022-08-03T20:55:14.662Z,18.54
2022-08-03T20:57:58.471Z,18.56
2022-08-03T21:00:43.464Z,18.54
2022-08-03T21:06:38.924Z,18.56
2022-08-03T21:09:39.816Z,18.48
2022-08-03T21:12:31.919Z,18.54
2022-08-03T21:13:04.675Z,19.83
2022-08-03T21:13:13.617Z,18.63
2022-08-03T21:16:11.483Z,18.51
2022-08-03T21:18:22.278Z,18.31
2022-08-03T21:21:07.536Z,18.37
2022-08-03T21:23:53.742Z,18.31
2022-08-03T21:26:40.463Z,18.28
2022-08-03T21:29:24.826Z,18.31
2022-08-03T21:32:08.536Z,18.31
2022-08-03T21:34:56.436Z,18.17
2022-08-03T21:37:41.526Z,18.03
2022-08-03T21:40:26.114Z,18.12
2022-08-03T21:43:09.567Z,17.97
2022-08-03T21:45:59.234Z,18.03
2022-08-03T21:48:44.868Z,17.92
2022-08-03T21:51:31.159Z,17.82
2022-08-03T21:54:14.772Z,17.82
2022-08-03T21:57:06.587Z,17.82
2022-08-03T21:59:54.513Z,18.02
2022-08-03T22:02:39.213Z,17.89
2022-08-03T22:05:42.591Z,17.89
2022-08-03T22:08:27.517Z,17.98
2022-08-03T22:11:10.942Z,17.83
2022-08-03T22:13:55.497Z,17.89
2022-08-03T22:16:38.650Z,17.85
2022-08-03T22:19:21.785Z,17.86
2022-08-03T22:22:07.681Z,17.82
2022-08-03T22:24:53.920Z,17.78
2022-08-03T22:27:41.021Z,17.77
2022-08-03T22:30:25.855Z,17.72
2022-08-03T22:33:11.902Z,17.74
2022-08-03T22:36:01.534Z,17.67
2022-08-03T22:38:44.778Z,17.64
2022-08-03T22:41:30.837Z,17.71
2022-08-03T22:44:14.186Z,17.75
2022-08-03T22:46:59.695Z,17.55
2022-08-03T22:49:44.403Z,17.47
2022-08-03T22:52:28.746Z,17.57
2022-08-03T22:55:13.699Z,17.44
2022-08-03T22:58:07.767Z,17.38
2022-08-03T23:00:55.895Z,17.46
2022-08-03T23:03:59.782Z,17.57
2022-08-03T23:06:49.173Z,17.65
2022-08-03T23:09:35.197Z,17.57
2022-08-03T23:12:21.092Z,17.59
2022-08-03T23:15:07.781Z,17.60
2022-08-03T23:17:58.103Z,17.67
2022-08-03T23:20:44.771Z,17.53
2022-08-03T23:23:31.059Z,17.49
2022-08-03T23:26:28.305Z,17.61
2022-08-03T23:29:15.459Z,17.64
2022-08-03T23:31:59.548Z,17.64
2022-08-03T23:35:01.501Z,17.50
2022-08-03T23:38:12.250Z,17.43
2022-08-03T23:40:51.487Z,17.28
2022-08-03T23:43:51.837Z,17.29
2022-08-03T23:46:38.493Z,17.21
2022-08-03T23:49:21.958Z,17.20
2022-08-03T23:52:11.198Z,17.11
2022-08-03T23:55:17.480Z,17.08
2022-08-03T23:58:10.756Z,17.05
